sensor_id;sensor_type;location;lat;lon;timestamp;P1;durP1;ratioP1;P2;durP2;ratioP2
32786;SDS011;19139;49.372;8.580;2022-11-22T00:01:22;4.73;;;2.67;;
32786;SDS011;19139;49.372;8.580;2022-11-22T00:03:53;4.57;;;2.50;;
32786;SDS011;19139;49.372;8.580;2022-11-22T00:06:25;3.70;;;1.80;;
32786;SDS011;19139;49.372;8.580;2022-11-22T00:08:51;4.03;;;1.93;;
32786;SDS011;19139;49.372;8.580;2022-11-22T00:11:23;3.63;;;2.47;;
32786;SDS011;19139;49.372;8.580;2022-11-22T00:13:54;3.90;;;1.87;;
32786;SDS011;19139;49.372;8.580;2022-11-22T00:16:21;2.40;;;2.20;;
32786;SDS011;19139;49.372;8.580;2022-11-22T00:18:52;3.93;;;2.50;;
32786;SDS011;19139;49.372;8.580;2022-11-22T00:21:24;3.43;;;2.00;;
32786;SDS011;19139;49.372;8.580;2022-11-22T00:23:55;4.30;;;2.03;;
32786;SDS011;19139;49.372;8.580;2022-11-22T00:26:29;4.67;;;2.40;;
32786;SDS011;19139;49.372;8.580;2022-11-22T00:29:00;3.13;;;1.97;;
32786;SDS011;19139;49.372;8.580;2022-11-22T00:31:33;3.40;;;2.00;;
32786;SDS011;19139;49.372;8.580;2022-11-22T00:34:04;4.50;;;2.10;;
32786;SDS011;19139;49.372;8.580;2022-11-22T00:36:32;4.23;;;2.10;;
32786;SDS011;19139;49.372;8.580;2022-11-22T00:39:03;2.80;;;2.30;;
32786;SDS011;19139;49.372;8.580;2022-11-22T00:41:35;3.97;;;2.03;;
32786;SDS011;19139;49.372;8.580;2022-11-22T00:44:02;3.50;;;2.43;;
32786;SDS011;19139;49.372;8.580;2022-11-22T00:46:33;3.80;;;2.33;;
32786;SDS011;19139;49.372;8.580;2022-11-22T00:49:05;6.10;;;2.63;;
32786;SDS011;19139;49.372;8.580;2022-11-22T00:51:31;3.30;;;2.20;;
32786;SDS011;19139;49.372;8.580;2022-11-22T00:54:03;3.60;;;1.90;;
32786;SDS011;19139;49.372;8.580;2022-11-22T00:56:35;4.30;;;2.47;;
32786;SDS011;19139;49.372;8.580;2022-11-22T00:59:01;3.00;;;1.87;;
32786;SDS011;19139;49.372;8.580;2022-11-22T01:01:33;2.83;;;2.10;;
32786;SDS011;19139;49.372;8.580;2022-11-22T01:04:05;3.63;;;1.93;;
32786;SDS011;19139;49.372;8.580;2022-11-22T01:06:31;6.30;;;2.07;;
32786;SDS011;19139;49.372;8.580;2022-11-22T01:09:03;2.10;;;1.60;;
32786;SDS011;19139;49.372;8.580;2022-11-22T01:11:34;2.43;;;1.90;;
32786;SDS011;19139;49.372;8.580;2022-11-22T01:14:01;4.07;;;2.37;;
32786;SDS011;19139;49.372;8.580;2022-11-22T01:16:33;2.43;;;1.60;;
32786;SDS011;19139;49.372;8.580;2022-11-22T01:19:04;3.53;;;2.00;;
32786;SDS011;19139;49.372;8.580;2022-11-22T01:21:31;3.57;;;2.20;;
32786;SDS011;19139;49.372;8.580;2022-11-22T01:24:03;4.40;;;2.23;;
32786;SDS011;19139;49.372;8.580;2022-11-22T01:26:35;2.47;;;1.70;;
32786;SDS011;19139;49.372;8.580;2022-11-22T01:29:02;2.50;;;1.90;;
32786;SDS011;19139;49.372;8.580;2022-11-22T01:31:33;3.83;;;1.87;;
32786;SDS011;19139;49.372;8.580;2022-11-22T01:34:05;2.27;;;1.70;;
32786;SDS011;19139;49.372;8.580;2022-11-22T01:36:31;3.20;;;1.97;;
32786;SDS011;19139;49.372;8.580;2022-11-22T01:39:03;2.50;;;1.87;;
32786;SDS011;19139;49.372;8.580;2022-11-22T01:41:35;4.20;;;2.43;;
32786;SDS011;19139;49.372;8.580;2022-11-22T01:47:13;2.23;;;1.87;;
32786;SDS011;19139;49.372;8.580;2022-11-22T01:49:45;2.90;;;2.00;;
32786;SDS011;19139;49.372;8.580;2022-11-22T01:52:25;3.70;;;1.87;;
32786;SDS011;19139;49.372;8.580;2022-11-22T01:54:56;2.70;;;2.00;;
32786;SDS011;19139;49.372;8.580;2022-11-22T01:57:27;2.70;;;1.90;;
32786;SDS011;19139;49.372;8.580;2022-11-22T02:00:00;2.27;;;1.97;;
32786;SDS011;19139;49.372;8.580;2022-11-22T02:02:33;2.60;;;2.10;;
32786;SDS011;19139;49.372;8.580;2022-11-22T02:05:07;2.17;;;1.80;;
32786;SDS011;19139;49.372;8.580;2022-11-22T02:10:27;2.77;;;1.67;;
32786;SDS011;19139;49.372;8.580;2022-11-22T02:12:56;2.00;;;1.70;;
32786;SDS011;19139;49.372;8.580;2022-11-22T02:15:24;1.90;;;1.63;;
32786;SDS011;19139;49.372;8.580;2022-11-22T02:17:51;2.87;;;1.70;;
32786;SDS011;19139;49.372;8.580;2022-11-22T02:20:22;2.90;;;1.93;;
32786;SDS011;19139;49.372;8.580;2022-11-22T02:22:56;3.07;;;1.93;;
32786;SDS011;19139;49.372;8.580;2022-11-22T02:25:50;3.27;;;1.93;;
32786;SDS011;19139;49.372;8.580;2022-11-22T02:28:27;2.37;;;1.60;;
32786;SDS011;19139;49.372;8.580;2022-11-22T02:30:57;1.97;;;1.73;;
32786;SDS011;19139;49.372;8.580;2022-11-22T02:33:23;3.30;;;1.83;;
32786;SDS011;19139;49.372;8.580;2022-11-22T02:35:55;4.33;;;1.93;;
32786;SDS011;19139;49.372;8.580;2022-11-22T02:38:25;2.73;;;1.87;;
32786;SDS011;19139;49.372;8.580;2022-11-22T02:41:03;2.97;;;1.93;;
32786;SDS011;19139;49.372;8.580;2022-11-22T02:43:37;3.33;;;2.13;;
32786;SDS011;19139;49.372;8.580;2022-11-22T02:46:10;4.10;;;2.10;;
32786;SDS011;19139;49.372;8.580;2022-11-22T02:48:45;2.23;;;1.87;;
32786;SDS011;19139;49.372;8.580;2022-11-22T02:51:13;4.03;;;1.87;;
32786;SDS011;19139;49.372;8.580;2022-11-22T02:53:42;1.77;;;1.50;;
32786;SDS011;19139;49.372;8.580;2022-11-22T02:56:14;3.43;;;1.70;;
32786;SDS011;19139;49.372;8.580;2022-11-22T02:58:42;3.57;;;1.97;;
32786;SDS011;19139;49.372;8.580;2022-11-22T03:01:14;3.00;;;1.60;;
32786;SDS011;19139;49.372;8.580;2022-11-22T03:03:41;3.03;;;1.63;;
32786;SDS011;19139;49.372;8.580;2022-11-22T03:06:12;2.93;;;1.50;;
32786;SDS011;19139;49.372;8.580;2022-11-22T03:08:44;1.83;;;1.37;;
32786;SDS011;19139;49.372;8.580;2022-11-22T03:11:21;2.93;;;1.60;;
32786;SDS011;19139;49.372;8.580;2022-11-22T03:13:52;3.00;;;1.80;;
32786;SDS011;19139;49.372;8.580;2022-11-22T03:16:24;2.23;;;1.57;;
32786;SDS011;19139;49.372;8.580;2022-11-22T03:18:55;2.93;;;2.00;;
32786;SDS011;19139;49.372;8.580;2022-11-22T03:21:22;3.07;;;1.80;;
32786;SDS011;19139;49.372;8.580;2022-11-22T03:23:53;1.97;;;1.77;;
32786;SDS011;19139;49.372;8.580;2022-11-22T03:26:25;2.50;;;1.67;;
32786;SDS011;19139;49.372;8.580;2022-11-22T03:28:51;2.20;;;2.00;;
32786;SDS011;19139;49.372;8.580;2022-11-22T03:31:23;2.03;;;1.33;;
32786;SDS011;19139;49.372;8.580;2022-11-22T03:33:54;3.03;;;1.57;;
32786;SDS011;19139;49.372;8.580;2022-11-22T03:36:21;2.40;;;1.47;;
32786;SDS011;19139;49.372;8.580;2022-11-22T03:38:53;3.40;;;1.80;;
32786;SDS011;19139;49.372;8.580;2022-11-22T03:41:25;2.60;;;1.50;;
32786;SDS011;19139;49.372;8.580;2022-11-22T03:43:51;2.20;;;1.37;;
32786;SDS011;19139;49.372;8.580;2022-11-22T03:46:23;2.00;;;1.70;;
32786;SDS011;19139;49.372;8.580;2022-11-22T03:48:54;2.13;;;1.47;;
32786;SDS011;19139;49.372;8.580;2022-11-22T03:51:21;2.80;;;1.40;;
32786;SDS011;19139;49.372;8.580;2022-11-22T03:53:47;2.63;;;1.67;;
32786;SDS011;19139;49.372;8.580;2022-11-22T03:56:14;2.37;;;1.77;;
32786;SDS011;19139;49.372;8.580;2022-11-22T03:58:41;1.97;;;1.77;;
32786;SDS011;19139;49.372;8.580;2022-11-22T04:01:12;1.70;;;1.60;;
32786;SDS011;19139;49.372;8.580;2022-11-22T04:03:44;1.83;;;1.40;;
32786;SDS011;19139;49.372;8.580;2022-11-22T04:06:15;1.80;;;1.30;;
32786;SDS011;19139;49.372;8.580;2022-11-22T04:08:42;1.80;;;1.60;;
32786;SDS011;19139;49.372;8.580;2022-11-22T04:11:13;2.80;;;1.50;;
32786;SDS011;19139;49.372;8.580;2022-11-22T04:13:45;2.17;;;1.93;;
32786;SDS011;19139;49.372;8.580;2022-11-22T04:16:35;2.43;;;1.60;;
32786;SDS011;19139;49.372;8.580;2022-11-22T04:19:01;2.33;;;1.63;;
32786;SDS011;19139;49.372;8.580;2022-11-22T04:21:33;1.60;;;1.40;;
32786;SDS011;19139;49.372;8.580;2022-11-22T04:24:05;2.87;;;1.57;;
32786;SDS011;19139;49.372;8.580;2022-11-22T04:26:53;2.20;;;1.60;;
32786;SDS011;19139;49.372;8.580;2022-11-22T04:29:25;2.20;;;1.80;;
32786;SDS011;19139;49.372;8.580;2022-11-22T04:31:51;2.23;;;1.40;;
32786;SDS011;19139;49.372;8.580;2022-11-22T04:34:37;2.00;;;1.40;;
32786;SDS011;19139;49.372;8.580;2022-11-22T04:37:04;2.53;;;1.97;;
32786;SDS011;19139;49.372;8.580;2022-11-22T04:39:35;2.53;;;1.63;;
32786;SDS011;19139;49.372;8.580;2022-11-22T04:42:02;2.07;;;1.73;;
32786;SDS011;19139;49.372;8.580;2022-11-22T04:44:52;2.10;;;1.67;;
32786;SDS011;19139;49.372;8.580;2022-11-22T04:47:24;2.30;;;2.10;;
32786;SDS011;19139;49.372;8.580;2022-11-22T04:50:14;2.43;;;1.50;;
32786;SDS011;19139;49.372;8.580;2022-11-22T04:53:04;2.73;;;1.70;;
32786;SDS011;19139;49.372;8.580;2022-11-22T04:55:31;3.10;;;1.40;;
32786;SDS011;19139;49.372;8.580;2022-11-22T04:58:02;2.83;;;1.70;;
32786;SDS011;19139;49.372;8.580;2022-11-22T05:00:34;2.00;;;1.40;;
32786;SDS011;19139;49.372;8.580;2022-11-22T05:03:01;2.90;;;1.30;;
32786;SDS011;19139;49.372;8.580;2022-11-22T05:05:34;2.60;;;1.50;;
32786;SDS011;19139;49.372;8.580;2022-11-22T05:08:11;2.10;;;1.40;;
32786;SDS011;19139;49.372;8.580;2022-11-22T05:10:43;1.77;;;1.43;;
32786;SDS011;19139;49.372;8.580;2022-11-22T05:13:26;2.00;;;1.60;;
32786;SDS011;19139;49.372;8.580;2022-11-22T05:16:03;1.30;;;1.13;;
32786;SDS011;19139;49.372;8.580;2022-11-22T05:18:31;1.67;;;1.30;;
32786;SDS011;19139;49.372;8.580;2022-11-22T05:21:04;2.63;;;1.33;;
32786;SDS011;19139;49.372;8.580;2022-11-22T05:23:31;2.40;;;1.47;;
32786;SDS011;19139;49.372;8.580;2022-11-22T05:28:55;1.63;;;1.20;;
32786;SDS011;19139;49.372;8.580;2022-11-22T05:31:23;2.17;;;1.10;;
32786;SDS011;19139;49.372;8.580;2022-11-22T05:33:53;2.73;;;1.50;;
32786;SDS011;19139;49.372;8.580;2022-11-22T05:36:21;2.50;;;1.60;;
32786;SDS011;19139;49.372;8.580;2022-11-22T05:38:53;1.47;;;0.90;;
32786;SDS011;19139;49.372;8.580;2022-11-22T05:41:25;2.00;;;1.30;;
32786;SDS011;19139;49.372;8.580;2022-11-22T05:43:53;1.90;;;1.10;;
32786;SDS011;19139;49.372;8.580;2022-11-22T05:46:25;1.77;;;1.30;;
32786;SDS011;19139;49.372;8.580;2022-11-22T05:48:53;2.13;;;1.10;;
32786;SDS011;19139;49.372;8.580;2022-11-22T05:51:22;1.63;;;1.30;;
32786;SDS011;19139;49.372;8.580;2022-11-22T05:53:57;2.50;;;1.30;;
32786;SDS011;19139;49.372;8.580;2022-11-22T05:56:29;1.03;;;0.93;;
32786;SDS011;19139;49.372;8.580;2022-11-22T05:59:00;1.87;;;1.20;;
32786;SDS011;19139;49.372;8.580;2022-11-22T06:01:32;2.50;;;1.90;;
32786;SDS011;19139;49.372;8.580;2022-11-22T06:04:03;2.00;;;1.33;;
32786;SDS011;19139;49.372;8.580;2022-11-22T06:06:30;2.00;;;1.50;;
32786;SDS011;19139;49.372;8.580;2022-11-22T06:09:02;2.27;;;1.13;;
32786;SDS011;19139;49.372;8.580;2022-11-22T06:11:34;1.57;;;1.47;;
32786;SDS011;19139;49.372;8.580;2022-11-22T06:14:07;1.93;;;1.30;;
32786;SDS011;19139;49.372;8.580;2022-11-22T06:16:39;1.80;;;1.40;;
32786;SDS011;19139;49.372;8.580;2022-11-22T06:19:10;2.37;;;1.43;;
32786;SDS011;19139;49.372;8.580;2022-11-22T06:21:42;1.50;;;1.10;;
32786;SDS011;19139;49.372;8.580;2022-11-22T06:24:14;3.40;;;1.27;;
32786;SDS011;19139;49.372;8.580;2022-11-22T06:26:45;1.60;;;1.30;;
32786;SDS011;19139;49.372;8.580;2022-11-22T06:29:12;1.63;;;1.20;;
32786;SDS011;19139;49.372;8.580;2022-11-22T06:31:43;2.20;;;1.50;;
32786;SDS011;19139;49.372;8.580;2022-11-22T06:34:15;1.43;;;1.00;;
32786;SDS011;19139;49.372;8.580;2022-11-22T06:36:41;1.40;;;1.10;;
32786;SDS011;19139;49.372;8.580;2022-11-22T06:39:13;5.53;;;1.93;;
32786;SDS011;19139;49.372;8.580;2022-11-22T06:41:44;6.13;;;2.20;;
32786;SDS011;19139;49.372;8.580;2022-11-22T06:44:11;5.60;;;2.17;;
32786;SDS011;19139;49.372;8.580;2022-11-22T06:46:42;4.83;;;1.67;;
32786;SDS011;19139;49.372;8.580;2022-11-22T06:49:14;4.93;;;2.13;;
32786;SDS011;19139;49.372;8.580;2022-11-22T06:51:45;7.47;;;1.97;;
32786;SDS011;19139;49.372;8.580;2022-11-22T06:54:12;7.27;;;2.30;;
32786;SDS011;19139;49.372;8.580;2022-11-22T06:56:39;4.17;;;1.80;;
32786;SDS011;19139;49.372;8.580;2022-11-22T06:59:06;5.07;;;1.80;;
32786;SDS011;19139;49.372;8.580;2022-11-22T07:01:34;5.87;;;2.00;;
32786;SDS011;19139;49.372;8.580;2022-11-22T07:04:02;6.53;;;2.23;;
32786;SDS011;19139;49.372;8.580;2022-11-22T07:06:35;4.00;;;1.87;;
32786;SDS011;19139;49.372;8.580;2022-11-22T07:09:07;5.00;;;2.13;;
32786;SDS011;19139;49.372;8.580;2022-11-22T07:11:35;4.83;;;1.93;;
32786;SDS011;19139;49.372;8.580;2022-11-22T07:14:02;3.07;;;1.77;;
32786;SDS011;19139;49.372;8.580;2022-11-22T07:16:35;4.50;;;2.00;;
32786;SDS011;19139;49.372;8.580;2022-11-22T07:19:03;5.80;;;1.57;;
32786;SDS011;19139;49.372;8.580;2022-11-22T07:21:35;4.47;;;2.00;;
32786;SDS011;19139;49.372;8.580;2022-11-22T07:24:02;4.50;;;1.83;;
32786;SDS011;19139;49.372;8.580;2022-11-22T07:26:35;4.00;;;1.90;;
32786;SDS011;19139;49.372;8.580;2022-11-22T07:29:02;5.53;;;1.67;;
32786;SDS011;19139;49.372;8.580;2022-11-22T07:31:34;4.83;;;1.83;;
32786;SDS011;19139;49.372;8.580;2022-11-22T07:34:01;4.40;;;1.63;;
32786;SDS011;19139;49.372;8.580;2022-11-22T07:36:32;3.23;;;1.60;;
32786;SDS011;19139;49.372;8.580;2022-11-22T07:39:04;5.10;;;1.80;;
32786;SDS011;19139;49.372;8.580;2022-11-22T07:41:31;3.67;;;1.70;;
32786;SDS011;19139;49.372;8.580;2022-11-22T07:43:57;4.00;;;1.23;;
32786;SDS011;19139;49.372;8.580;2022-11-22T07:46:25;4.13;;;2.00;;
32786;SDS011;19139;49.372;8.580;2022-11-22T07:48:58;3.03;;;1.40;;
32786;SDS011;19139;49.372;8.580;2022-11-22T07:51:26;4.17;;;2.03;;
32786;SDS011;19139;49.372;8.580;2022-11-22T07:53:54;4.53;;;1.63;;
32786;SDS011;19139;49.372;8.580;2022-11-22T07:56:21;4.83;;;2.07;;
32786;SDS011;19139;49.372;8.580;2022-11-22T07:58:53;4.70;;;2.10;;
32786;SDS011;19139;49.372;8.580;2022-11-22T08:01:25;3.87;;;1.70;;
32786;SDS011;19139;49.372;8.580;2022-11-22T08:03:51;4.37;;;1.30;;
32786;SDS011;19139;49.372;8.580;2022-11-22T08:06:18;3.40;;;1.30;;
32786;SDS011;19139;49.372;8.580;2022-11-22T08:08:44;4.63;;;1.90;;
32786;SDS011;19139;49.372;8.580;2022-11-22T08:11:11;4.20;;;1.70;;
32786;SDS011;19139;49.372;8.580;2022-11-22T08:13:38;3.20;;;1.60;;
32786;SDS011;19139;49.372;8.580;2022-11-22T08:16:06;2.93;;;1.40;;
32786;SDS011;19139;49.372;8.580;2022-11-22T08:18:35;4.77;;;1.60;;
32786;SDS011;19139;49.372;8.580;2022-11-22T08:21:03;4.63;;;1.60;;
32786;SDS011;19139;49.372;8.580;2022-11-22T08:23:31;4.07;;;2.07;;
32786;SDS011;19139;49.372;8.580;2022-11-22T08:26:03;3.57;;;1.43;;
32786;SDS011;19139;49.372;8.580;2022-11-22T08:28:31;6.83;;;2.13;;
32786;SDS011;19139;49.372;8.580;2022-11-22T08:31:04;5.03;;;1.93;;
32786;SDS011;19139;49.372;8.580;2022-11-22T08:33:33;2.77;;;1.27;;
32786;SDS011;19139;49.372;8.580;2022-11-22T08:36:05;6.03;;;1.57;;
32786;SDS011;19139;49.372;8.580;2022-11-22T08:38:32;3.87;;;1.60;;
32786;SDS011;19139;49.372;8.580;2022-11-22T08:41:06;4.00;;;1.40;;
32786;SDS011;19139;49.372;8.580;2022-11-22T08:43:33;3.67;;;1.40;;
32786;SDS011;19139;49.372;8.580;2022-11-22T08:46:05;3.23;;;1.47;;
32786;SDS011;19139;49.372;8.580;2022-11-22T08:48:33;5.17;;;1.30;;
32786;SDS011;19139;49.372;8.580;2022-11-22T08:51:06;3.27;;;1.43;;
32786;SDS011;19139;49.372;8.580;2022-11-22T08:53:35;4.73;;;1.40;;
32786;SDS011;19139;49.372;8.580;2022-11-22T08:56:04;5.07;;;1.50;;
32786;SDS011;19139;49.372;8.580;2022-11-22T08:58:32;3.33;;;1.63;;
32786;SDS011;19139;49.372;8.580;2022-11-22T09:01:10;3.10;;;1.40;;
32786;SDS011;19139;49.372;8.580;2022-11-22T09:03:44;2.93;;;1.20;;
32786;SDS011;19139;49.372;8.580;2022-11-22T09:06:16;2.33;;;1.23;;
32786;SDS011;19139;49.372;8.580;2022-11-22T09:09:04;1.90;;;1.10;;
32786;SDS011;19139;49.372;8.580;2022-11-22T09:11:51;4.73;;;1.63;;
32786;SDS011;19139;49.372;8.580;2022-11-22T09:14:17;4.60;;;1.47;;
32786;SDS011;19139;49.372;8.580;2022-11-22T09:16:44;2.50;;;1.33;;
32786;SDS011;19139;49.372;8.580;2022-11-22T09:19:10;3.47;;;1.73;;
32786;SDS011;19139;49.372;8.580;2022-11-22T09:21:37;1.83;;;1.10;;
32786;SDS011;19139;49.372;8.580;2022-11-22T09:24:04;2.83;;;1.30;;
32786;SDS011;19139;49.372;8.580;2022-11-22T09:26:35;3.33;;;1.40;;
32786;SDS011;19139;49.372;8.580;2022-11-22T09:29:07;3.30;;;1.27;;
32786;SDS011;19139;49.372;8.580;2022-11-22T09:31:34;4.50;;;1.83;;
32786;SDS011;19139;49.372;8.580;2022-11-22T09:34:05;2.87;;;1.50;;
32786;SDS011;19139;49.372;8.580;2022-11-22T09:36:37;4.63;;;1.60;;
32786;SDS011;19139;49.372;8.580;2022-11-22T09:39:04;2.40;;;1.57;;
32786;SDS011;19139;49.372;8.580;2022-11-22T09:44:46;5.07;;;1.80;;
32786;SDS011;19139;49.372;8.580;2022-11-22T09:52:45;2.63;;;1.50;;
32786;SDS011;19139;49.372;8.580;2022-11-22T09:55:17;2.27;;;1.17;;
32786;SDS011;19139;49.372;8.580;2022-11-22T10:00:57;3.90;;;1.40;;
32786;SDS011;19139;49.372;8.580;2022-11-22T10:06:33;2.50;;;1.10;;
32786;SDS011;19139;49.372;8.580;2022-11-22T10:18:00;2.13;;;1.20;;
32786;SDS011;19139;49.372;8.580;2022-11-22T10:20:36;2.53;;;1.00;;
32786;SDS011;19139;49.372;8.580;2022-11-22T10:23:15;3.20;;;1.30;;
32786;SDS011;19139;49.372;8.580;2022-11-22T10:25:59;2.33;;;1.03;;
32786;SDS011;19139;49.372;8.580;2022-11-22T10:28:38;2.23;;;1.00;;
32786;SDS011;19139;49.372;8.580;2022-11-22T10:45:27;2.33;;;1.43;;
32786;SDS011;19139;49.372;8.580;2022-11-22T10:51:04;2.27;;;1.10;;
32786;SDS011;19139;49.372;8.580;2022-11-22T10:53:58;2.87;;;1.00;;
32786;SDS011;19139;49.372;8.580;2022-11-22T10:56:48;2.23;;;1.03;;
32786;SDS011;19139;49.372;8.580;2022-11-22T11:03:09;2.27;;;1.40;;
32786;SDS011;19139;49.372;8.580;2022-11-22T11:08:56;2.50;;;1.30;;
32786;SDS011;19139;49.372;8.580;2022-11-22T11:11:48;2.47;;;1.67;;
32786;SDS011;19139;49.372;8.580;2022-11-22T11:14:25;3.23;;;1.10;;
32786;SDS011;19139;49.372;8.580;2022-11-22T11:16:56;2.70;;;1.20;;
32786;SDS011;19139;49.372;8.580;2022-11-22T11:19:24;4.03;;;1.30;;
32786;SDS011;19139;49.372;8.580;2022-11-22T11:21:57;2.33;;;1.03;;
32786;SDS011;19139;49.372;8.580;2022-11-22T11:24:27;2.77;;;1.20;;
32786;SDS011;19139;49.372;8.580;2022-11-22T11:26:55;2.27;;;1.50;;
32786;SDS011;19139;49.372;8.580;2022-11-22T11:29:30;2.47;;;1.60;;
32786;SDS011;19139;49.372;8.580;2022-11-22T11:32:19;2.37;;;1.20;;
32786;SDS011;19139;49.372;8.580;2022-11-22T11:34:56;2.53;;;1.20;;
32786;SDS011;19139;49.372;8.580;2022-11-22T11:37:30;2.43;;;1.30;;
32786;SDS011;19139;49.372;8.580;2022-11-22T11:39:58;1.80;;;1.07;;
32786;SDS011;19139;49.372;8.580;2022-11-22T11:42:31;1.67;;;0.83;;
32786;SDS011;19139;49.372;8.580;2022-11-22T11:47:46;3.37;;;1.77;;
32786;SDS011;19139;49.372;8.580;2022-11-22T11:50:22;2.27;;;1.43;;
32786;SDS011;19139;49.372;8.580;2022-11-22T11:53:01;2.20;;;1.07;;
32786;SDS011;19139;49.372;8.580;2022-11-22T11:55:34;2.97;;;1.60;;
32786;SDS011;19139;49.372;8.580;2022-11-22T11:58:19;1.47;;;1.00;;
32786;SDS011;19139;49.372;8.580;2022-11-22T12:00:49;1.20;;;0.97;;
32786;SDS011;19139;49.372;8.580;2022-11-22T12:03:17;2.60;;;1.37;;
32786;SDS011;19139;49.372;8.580;2022-11-22T12:05:52;3.10;;;1.67;;
32786;SDS011;19139;49.372;8.580;2022-11-22T12:08:37;2.60;;;1.27;;
32786;SDS011;19139;49.372;8.580;2022-11-22T12:11:10;3.40;;;1.50;;
32786;SDS011;19139;49.372;8.580;2022-11-22T12:13:52;2.83;;;1.07;;
32786;SDS011;19139;49.372;8.580;2022-11-22T12:16:48;4.40;;;1.23;;
32786;SDS011;19139;49.372;8.580;2022-11-22T12:21:55;3.23;;;1.63;;
32786;SDS011;19139;49.372;8.580;2022-11-22T12:27:22;2.30;;;1.50;;
32786;SDS011;19139;49.372;8.580;2022-11-22T12:29:49;1.97;;;1.10;;
32786;SDS011;19139;49.372;8.580;2022-11-22T12:32:24;3.93;;;1.80;;
32786;SDS011;19139;49.372;8.580;2022-11-22T12:35:09;3.07;;;1.70;;
32786;SDS011;19139;49.372;8.580;2022-11-22T12:37:47;2.03;;;1.23;;
32786;SDS011;19139;49.372;8.580;2022-11-22T12:40:31;2.63;;;1.40;;
32786;SDS011;19139;49.372;8.580;2022-11-22T12:43:04;2.57;;;1.20;;
32786;SDS011;19139;49.372;8.580;2022-11-22T12:45:41;2.70;;;1.23;;
32786;SDS011;19139;49.372;8.580;2022-11-22T12:48:22;2.00;;;1.20;;
32786;SDS011;19139;49.372;8.580;2022-11-22T12:51:04;3.43;;;1.40;;
32786;SDS011;19139;49.372;8.580;2022-11-22T12:53:37;4.83;;;1.50;;
32786;SDS011;19139;49.372;8.580;2022-11-22T12:58:42;2.77;;;1.20;;
32786;SDS011;19139;49.372;8.580;2022-11-22T13:01:28;3.73;;;1.47;;
32786;SDS011;19139;49.372;8.580;2022-11-22T13:09:57;2.93;;;1.07;;
32786;SDS011;19139;49.372;8.580;2022-11-22T13:12:36;3.53;;;1.47;;
32786;SDS011;19139;49.372;8.580;2022-11-22T13:15:08;2.63;;;1.23;;
32786;SDS011;19139;49.372;8.580;2022-11-22T13:17:43;2.70;;;1.10;;
32786;SDS011;19139;49.372;8.580;2022-11-22T13:20:17;3.87;;;1.67;;
32786;SDS011;19139;49.372;8.580;2022-11-22T13:28:16;4.33;;;1.50;;
32786;SDS011;19139;49.372;8.580;2022-11-22T13:31:32;2.53;;;1.30;;
32786;SDS011;19139;49.372;8.580;2022-11-22T13:33:41;3.27;;;1.63;;
32786;SDS011;19139;49.372;8.580;2022-11-22T13:38:53;2.77;;;1.20;;
32786;SDS011;19139;49.372;8.580;2022-11-22T13:46:58;2.23;;;1.00;;
32786;SDS011;19139;49.372;8.580;2022-11-22T13:49:41;2.87;;;1.47;;
32786;SDS011;19139;49.372;8.580;2022-11-22T13:57:30;2.60;;;1.10;;
32786;SDS011;19139;49.372;8.580;2022-11-22T14:02:47;1.97;;;0.80;;
32786;SDS011;19139;49.372;8.580;2022-11-22T14:05:20;2.03;;;1.10;;
32786;SDS011;19139;49.372;8.580;2022-11-22T14:08:04;1.93;;;0.93;;
32786;SDS011;19139;49.372;8.580;2022-11-22T14:13:43;2.27;;;1.13;;
32786;SDS011;19139;49.372;8.580;2022-11-22T14:17:01;3.20;;;1.17;;
32786;SDS011;19139;49.372;8.580;2022-11-22T14:19:54;1.93;;;1.07;;
32786;SDS011;19139;49.372;8.580;2022-11-22T14:28:19;4.53;;;1.27;;
32786;SDS011;19139;49.372;8.580;2022-11-22T14:31:13;2.27;;;0.93;;
32786;SDS011;19139;49.372;8.580;2022-11-22T14:45:21;1.87;;;0.93;;
32786;SDS011;19139;49.372;8.580;2022-11-22T14:48:00;2.93;;;1.17;;
32786;SDS011;19139;49.372;8.580;2022-11-22T15:08:24;2.80;;;0.90;;
32786;SDS011;19139;49.372;8.580;2022-11-22T15:17:12;2.97;;;1.20;;
32786;SDS011;19139;49.372;8.580;2022-11-22T15:20:48;1.13;;;0.73;;
32786;SDS011;19139;49.372;8.580;2022-11-22T15:23:24;1.70;;;0.93;;
32786;SDS011;19139;49.372;8.580;2022-11-22T15:26:16;1.43;;;0.70;;
32786;SDS011;19139;49.372;8.580;2022-11-22T15:29:04;2.90;;;0.83;;
32786;SDS011;19139;49.372;8.580;2022-11-22T15:31:50;1.63;;;0.83;;
32786;SDS011;19139;49.372;8.580;2022-11-22T15:34:37;2.13;;;0.77;;
32786;SDS011;19139;49.372;8.580;2022-11-22T15:37:31;2.13;;;1.10;;
32786;SDS011;19139;49.372;8.580;2022-11-22T15:40:31;2.50;;;0.90;;
32786;SDS011;19139;49.372;8.580;2022-11-22T15:43:24;2.53;;;0.77;;
32786;SDS011;19139;49.372;8.580;2022-11-22T15:46:12;3.00;;;1.00;;
32786;SDS011;19139;49.372;8.580;2022-11-22T15:48:58;3.93;;;1.20;;
32786;SDS011;19139;49.372;8.580;2022-11-22T15:51:52;1.60;;;1.10;;
32786;SDS011;19139;49.372;8.580;2022-11-22T15:54:40;1.53;;;0.80;;
32786;SDS011;19139;49.372;8.580;2022-11-22T15:57:36;2.17;;;1.33;;
32786;SDS011;19139;49.372;8.580;2022-11-22T16:00:18;1.03;;;0.73;;
32786;SDS011;19139;49.372;8.580;2022-11-22T16:02:49;1.50;;;0.80;;
32786;SDS011;19139;49.372;8.580;2022-11-22T16:05:30;1.73;;;0.80;;
32786;SDS011;19139;49.372;8.580;2022-11-22T16:08:21;2.33;;;1.47;;
32786;SDS011;19139;49.372;8.580;2022-11-22T16:10:57;1.77;;;0.70;;
32786;SDS011;19139;49.372;8.580;2022-11-22T16:13:27;2.40;;;0.87;;
32786;SDS011;19139;49.372;8.580;2022-11-22T16:16:05;1.47;;;0.97;;
32786;SDS011;19139;49.372;8.580;2022-11-22T16:18:32;1.47;;;1.00;;
32786;SDS011;19139;49.372;8.580;2022-11-22T16:23:41;2.47;;;1.10;;
32786;SDS011;19139;49.372;8.580;2022-11-22T16:26:19;2.13;;;1.27;;
32786;SDS011;19139;49.372;8.580;2022-11-22T16:28:55;1.77;;;0.80;;
32786;SDS011;19139;49.372;8.580;2022-11-22T16:31:35;1.73;;;1.17;;
32786;SDS011;19139;49.372;8.580;2022-11-22T16:34:07;2.80;;;0.93;;
32786;SDS011;19139;49.372;8.580;2022-11-22T16:36:43;3.50;;;1.67;;
32786;SDS011;19139;49.372;8.580;2022-11-22T16:39:10;2.67;;;1.00;;
32786;SDS011;19139;49.372;8.580;2022-11-22T16:41:36;2.40;;;1.00;;
32786;SDS011;19139;49.372;8.580;2022-11-22T16:44:05;1.87;;;1.20;;
32786;SDS011;19139;49.372;8.580;2022-11-22T16:46:41;1.33;;;0.90;;
32786;SDS011;19139;49.372;8.580;2022-11-22T16:49:19;1.87;;;0.70;;
32786;SDS011;19139;49.372;8.580;2022-11-22T16:51:47;2.33;;;0.90;;
32786;SDS011;19139;49.372;8.580;2022-11-22T16:54:18;1.23;;;0.60;;
32786;SDS011;19139;49.372;8.580;2022-11-22T16:56:50;2.37;;;0.93;;
32786;SDS011;19139;49.372;8.580;2022-11-22T16:59:22;1.83;;;0.83;;
32786;SDS011;19139;49.372;8.580;2022-11-22T17:01:54;1.30;;;0.97;;
32786;SDS011;19139;49.372;8.580;2022-11-22T17:04:25;1.93;;;0.83;;
32786;SDS011;19139;49.372;8.580;2022-11-22T17:06:52;1.83;;;0.80;;
32786;SDS011;19139;49.372;8.580;2022-11-22T17:09:24;1.83;;;0.70;;
32786;SDS011;19139;49.372;8.580;2022-11-22T17:11:56;1.90;;;0.90;;
32786;SDS011;19139;49.372;8.580;2022-11-22T17:14:22;2.63;;;1.03;;
32786;SDS011;19139;49.372;8.580;2022-11-22T17:16:54;1.73;;;1.10;;
32786;SDS011;19139;49.372;8.580;2022-11-22T17:19:21;1.27;;;0.93;;
32786;SDS011;19139;49.372;8.580;2022-11-22T17:22:08;1.47;;;1.13;;
32786;SDS011;19139;49.372;8.580;2022-11-22T17:24:36;2.63;;;1.17;;
32786;SDS011;19139;49.372;8.580;2022-11-22T17:27:03;2.50;;;0.83;;
32786;SDS011;19139;49.372;8.580;2022-11-22T17:29:34;1.77;;;0.90;;
32786;SDS011;19139;49.372;8.580;2022-11-22T17:32:16;1.27;;;0.80;;
32786;SDS011;19139;49.372;8.580;2022-11-22T17:34:42;1.80;;;1.07;;
32786;SDS011;19139;49.372;8.580;2022-11-22T17:37:14;1.23;;;0.77;;
32786;SDS011;19139;49.372;8.580;2022-11-22T17:39:49;2.33;;;1.57;;
32786;SDS011;19139;49.372;8.580;2022-11-22T17:42:16;2.60;;;0.90;;
32786;SDS011;19139;49.372;8.580;2022-11-22T17:44:44;1.43;;;0.80;;
32786;SDS011;19139;49.372;8.580;2022-11-22T17:47:15;1.40;;;0.80;;